This is the latest recevied weather packets stored in our database for station/object YO6FNF-10. If no packets are shown the sender has not sent any weather packets the latest 1 day(s).
| Time | Temp. | Humidity | Pressure | Rain* | Wind** | Luminosity | Snow |
|---|---|---|---|---|---|---|---|
| 1778096846 | 181.67° C | 52% | - | - | - | - | - |
| 1778095946 | 16.67° C | 50% | 1016 hPa | - | - | - | - |
| 1778091445 | 17.78° C | 49% | 1015.4 hPa | - | - | - | - |
| 1778086944 | 19.44° C | 39% | 1014.7 hPa | - | - | - | - |
| 1778086044 | 19.44° C | 38% | 1014.6 hPa | - | - | - | - |
| 1778082443 | 21.11° C | 36% | 1014.3 hPa | - | - | - | - |
| 1778081543 | 21.67° C | 33% | 1014.5 hPa | - | - | - | - |
| 1778077942 | 26.67° C | 28% | 1014.6 hPa | - | - | - | - |
| 1778077042 | 23.89° C | 32% | 1014.5 hPa | - | - | - | - |
| 1778076142 | 23.89° C | 32% | 1014.4 hPa | - | - | - | - |
| 1778071641 | 28.89° C | 13% | 1014.4 hPa | - | - | - | - |
| 1778068040 | 28.33° C | 17% | 1015 hPa | - | - | - | - |
| 1778067140 | 28.89° C | 20% | 1015 hPa | - | - | - | - |
| 1778064439 | 28.89° C | 21% | 1015.6 hPa | - | - | - | - |
| 1778062639 | 27.78° C | 24% | 1015.9 hPa | - | - | - | - |
| 1778061739 | 27.78° C | 24% | 1016 hPa | - | - | - | - |
| 1778059938 | 27.22° C | 26% | 1016.2 hPa | - | - | - | - |
| 1778059038 | 27.22° C | 27% | 1016.3 hPa | - | - | - | - |
| 1778058138 | 27.22° C | 29% | 1016.4 hPa | - | - | - | - |
| 1778057238 | 27.22° C | 29% | 1016.5 hPa | - | - | - | - |
| 1778054537 | 25° C | 34% | 1016.6 hPa | - | - | - | - |
| 1778053637 | 23.33° C | 39% | 1016.7 hPa | - | - | - | - |
| 1778052736 | 22.78° C | 38% | 1016.8 hPa | - | - | - | - |
| 1778038690 | 7.22° C | 69% | 1017 hPa | - | - | - | - |
| 1778037790 | 7.22° C | 70% | 1016.9 hPa | - | - | - | - |
* Rain since midnight (hover to see other rain measurements)
** Current wind speed in m/s (hover to see current wind gust speed)